Time;durP1;ratioP1;P1;durP2;ratioP2;P2;SDS_P1;SDS_P2;PMS_P1;PMS_P2;Temp;Humidity;BMP_temperature;BMP_pressure;BME280_temperature;BME280_humidity;BME280_pressure;Samples;Min_cycle;Max_cycle;Signal;HPM_P1;HPM_P2
2022/06/03 00:01:12;;;;;;;4.17;3.90;;;14.30;99.90;;;;;;5060023;28;20434;-39
2022/06/03 00:03:49;;;;;;;4.63;3.80;;;14.30;99.90;;;;;;5069057;28;20435;-39
2022/06/03 00:06:44;;;;;;;5.00;4.50;;;14.20;99.90;;;;;;5061259;28;20464;-38
2022/06/03 00:09:39;;;;;;;4.27;3.97;;;14.20;99.90;;;;;;5051882;28;20474;-38
2022/06/03 00:12:10;;;;;;;4.10;3.63;;;14.20;99.90;;;;;;5042160;28;20430;-39
2022/06/03 00:15:26;;;;;;;4.93;4.10;;;14.20;99.90;;;;;;5064214;28;20428;-38
2022/06/03 00:18:10;;;;;;;4.07;3.77;;;14.10;99.90;;;;;;5048698;28;20435;-39
2022/06/03 00:20:54;;;;;;;3.60;3.30;;;14.10;99.90;;;;;;5066957;28;21049;-40
2022/06/03 00:23:26;;;;;;;4.00;3.60;;;14.10;99.90;;;;;;5048786;28;20423;-38
2022/06/03 00:26:25;;;;;;;4.33;4.00;;;14.10;99.90;;;;;;5050888;28;20494;-39
2022/06/03 00:29:08;;;;;;;6.70;3.70;;;14.10;99.90;;;;;;5068325;28;20791;-39
2022/06/03 00:31:42;;;;;;;4.00;3.60;;;14.10;99.90;;;;;;5068930;28;20472;-40
2022/06/03 00:34:29;;;;;;;4.67;3.63;;;14.00;99.90;;;;;;5067599;28;20438;-38
2022/06/03 00:37:17;;;;;;;4.30;3.90;;;14.00;99.90;;;;;;5054860;28;20534;-39
2022/06/03 00:39:46;;;;;;;3.87;3.57;;;14.00;99.90;;;;;;5049999;28;20416;-39
2022/06/03 00:42:17;;;;;;;3.27;3.07;;;13.90;99.90;;;;;;5064135;28;20419;-38
2022/06/03 00:44:45;;;;;;;4.27;3.87;;;13.90;99.90;;;;;;5063876;28;20502;-39
2022/06/03 00:47:59;;;;;;;3.93;3.63;;;13.90;99.90;;;;;;5064896;28;21192;-39
2022/06/03 00:50:41;;;;;;;4.10;3.80;;;13.80;99.90;;;;;;5062308;28;20798;-38
2022/06/03 00:53:28;;;;;;;5.53;4.23;;;13.80;99.90;;;;;;5048859;28;20514;-40
2022/06/03 00:56:12;;;;;;;3.63;3.43;;;13.70;99.90;;;;;;5042287;28;20811;-38
2022/06/03 00:58:55;;;;;;;4.40;4.00;;;13.70;99.90;;;;;;5065804;28;20431;-40
2022/06/03 01:01:24;;;;;;;3.93;3.63;;;13.70;99.90;;;;;;5046751;28;20934;-39
2022/06/03 01:04:17;;;;;;;4.10;3.80;;;13.60;99.90;;;;;;5068530;28;20415;-38
2022/06/03 01:07:12;;;;;;;4.47;4.07;;;13.60;99.90;;;;;;5059409;28;20468;-38
2022/06/03 01:10:17;;;;;;;4.40;4.10;;;13.60;99.90;;;;;;5052848;28;20976;-39
2022/06/03 01:13:02;;;;;;;4.00;3.70;;;13.60;99.90;;;;;;5062024;28;20426;-39
2022/06/03 01:15:38;;;;;;;4.50;4.10;;;13.60;99.90;;;;;;5067898;28;20830;-38
2022/06/03 01:18:33;;;;;;;4.43;4.03;;;13.50;99.90;;;;;;5067726;28;20434;-38
2022/06/03 01:21:46;;;;;;;4.00;3.70;;;13.50;99.90;;;;;;5061163;28;20440;-39
2022/06/03 01:24:24;;;;;;;6.53;4.17;;;13.60;99.90;;;;;;5031369;28;20519;-39
2022/06/03 01:27:18;;;;;;;5.90;5.10;;;13.50;99.90;;;;;;5050069;28;20494;-38
2022/06/03 01:30:15;;;;;;;4.60;4.20;;;13.50;99.90;;;;;;5065225;28;20412;-39
2022/06/03 01:33:00;;;;;;;4.90;4.17;;;13.50;99.90;;;;;;5046261;28;20419;-39
2022/06/03 01:35:42;;;;;;;5.63;5.13;;;13.50;99.90;;;;;;5071945;28;20407;-39
2022/06/03 01:38:16;;;;;;;4.73;4.33;;;13.50;99.90;;;;;;5054174;28;20542;-38
2022/06/03 01:41:03;;;;;;;5.33;4.83;;;13.50;99.90;;;;;;5055245;28;21757;-39
2022/06/03 01:43:29;;;;;;;4.83;4.40;;;13.50;99.90;;;;;;5071968;28;20480;-38
2022/06/03 01:46:11;;;;;;;5.13;4.73;;;13.40;99.90;;;;;;5065467;28;20458;-38
2022/06/03 01:48:49;;;;;;;5.63;5.13;;;13.30;99.90;;;;;;5071298;28;20901;-39
2022/06/03 01:51:52;;;;;;;5.17;4.77;;;13.20;99.90;;;;;;5069587;28;20472;-39
2022/06/03 01:54:43;;;;;;;4.80;4.40;;;13.20;99.90;;;;;;5058137;28;20415;-39
2022/06/03 01:57:46;;;;;;;4.73;4.33;;;13.10;99.90;;;;;;5058419;28;20434;-39
2022/06/03 02:00:34;;;;;;;4.90;4.50;;;13.20;99.90;;;;;;5063848;28;20841;-39
2022/06/03 02:03:24;;;;;;;5.67;4.70;;;13.00;99.90;;;;;;5071584;28;20433;-39
2022/06/03 02:06:13;;;;;;;6.77;6.17;;;13.00;99.90;;;;;;5071498;28;20462;-38
2022/06/03 02:09:01;;;;;;;6.77;6.07;;;13.00;99.90;;;;;;5052884;28;20516;-38
2022/06/03 02:11:51;;;;;;;9.90;7.70;;;13.00;99.90;;;;;;5059539;28;20451;-39
2022/06/03 02:14:38;;;;;;;8.80;8.00;;;13.00;99.90;;;;;;5071631;28;20426;-39
2022/06/03 02:17:22;;;;;;;7.83;6.50;;;12.90;99.90;;;;;;5058566;28;20430;-39
2022/06/03 02:20:06;;;;;;;8.47;7.13;;;12.90;99.90;;;;;;5071264;28;20765;-38
2022/06/03 02:22:52;;;;;;;11.10;8.17;;;12.90;99.90;;;;;;5057072;28;20440;-38
2022/06/03 02:25:29;;;;;;;8.63;7.73;;;13.00;99.90;;;;;;5048410;28;20889;-39
2022/06/03 02:28:25;;;;;;;8.07;7.37;;;12.90;99.90;;;;;;5065970;28;20504;-39
2022/06/03 02:31:20;;;;;;;7.43;6.73;;;12.90;99.90;;;;;;5062766;28;20418;-39
2022/06/03 02:34:11;;;;;;;7.73;7.03;;;12.80;99.90;;;;;;5070941;28;21085;-38
2022/06/03 02:36:39;;;;;;;7.50;6.80;;;12.80;99.90;;;;;;5067070;28;20440;-38
2022/06/03 02:39:33;;;;;;;6.83;6.13;;;12.80;99.90;;;;;;5053231;28;20429;-38
2022/06/03 02:42:07;;;;;;;7.13;6.43;;;12.80;99.90;;;;;;5045345;28;20430;-38
2022/06/03 02:44:32;;;;;;;6.50;5.97;;;12.80;99.90;;;;;;5069883;28;20498;-40
2022/06/03 02:47:23;;;;;;;8.07;7.33;;;12.80;99.90;;;;;;5065887;28;20570;-39
2022/06/03 02:49:51;;;;;;;7.27;6.30;;;12.70;99.90;;;;;;5070770;28;20195;-38
2022/06/03 02:52:35;;;;;;;6.43;5.90;;;12.70;99.90;;;;;;5062650;28;20432;-38
2022/06/03 02:55:13;;;;;;;5.90;5.40;;;12.60;99.90;;;;;;5044088;28;20444;-38
2022/06/03 02:58:05;;;;;;;6.90;6.30;;;12.60;99.90;;;;;;5057651;28;20488;-38
2022/06/03 03:00:50;;;;;;;6.17;5.60;;;12.60;99.90;;;;;;5057512;28;20415;-38
2022/06/03 03:03:37;;;;;;;6.10;5.60;;;12.50;99.90;;;;;;5064961;28;20411;-39
2022/06/03 03:06:27;;;;;;;6.53;5.93;;;12.50;99.90;;;;;;5070277;28;20459;-39
2022/06/03 03:09:25;;;;;;;7.50;6.77;;;12.30;99.90;;;;;;5051622;28;20423;-38
2022/06/03 03:12:02;;;;;;;5.73;5.23;;;12.20;99.90;;;;;;5059938;28;20430;-39
2022/06/03 03:14:32;;;;;;;6.33;5.73;;;12.00;99.90;;;;;;5070017;28;20455;-39
2022/06/03 03:17:36;;;;;;;6.27;5.70;;;12.00;99.90;;;;;;5060066;28;20941;-38
2022/06/03 03:20:28;;;;;;;6.63;6.03;;;12.00;99.90;;;;;;5070061;28;20419;-38
2022/06/03 03:23:06;;;;;;;6.27;5.50;;;12.00;99.90;;;;;;5053713;28;20789;-38
2022/06/03 03:25:53;;;;;;;6.37;5.73;;;12.10;99.90;;;;;;5050785;28;20452;-39
2022/06/03 03:29:07;;;;;;;6.40;5.80;;;12.00;99.90;;;;;;5043526;28;20470;-38
2022/06/03 03:31:47;;;;;;;7.70;6.17;;;11.90;99.90;;;;;;5048280;28;20438;-39
2022/06/03 03:34:25;;;;;;;6.60;6.00;;;11.70;99.90;;;;;;5069317;28;20418;-39
2022/06/03 03:37:21;;;;;;;6.00;5.47;;;11.80;99.90;;;;;;5067135;28;20434;-38
2022/06/03 03:40:23;;;;;;;7.00;6.00;;;11.80;99.90;;;;;;5050449;28;20446;-39
2022/06/03 03:43:16;;;;;;;8.83;6.87;;;11.80;99.90;;;;;;5059812;28;20509;-39
2022/06/03 03:45:56;;;;;;;6.37;5.87;;;11.90;99.90;;;;;;5068405;28;20467;-40
2022/06/03 03:48:54;;;;;;;6.80;6.10;;;12.00;99.90;;;;;;5068996;28;20422;-39
2022/06/03 03:51:34;;;;;;;6.27;5.67;;;11.90;99.90;;;;;;5048445;28;20423;-39
2022/06/03 03:54:20;;;;;;;7.10;5.43;;;11.80;99.90;;;;;;5053305;28;20431;-39
2022/06/03 03:56:48;;;;;;;7.70;6.50;;;11.70;99.90;;;;;;5045138;28;20443;-39
2022/06/03 03:59:23;;;;;;;6.40;5.53;;;11.60;99.90;;;;;;5066687;28;20431;-39
2022/06/03 04:02:10;;;;;;;6.40;5.90;;;11.50;99.90;;;;;;5055012;28;20443;-39
2022/06/03 04:05:08;;;;;;;6.53;5.83;;;11.40;99.90;;;;;;5069379;28;20451;-39
2022/06/03 04:07:45;;;;;;;11.40;7.40;;;11.20;99.90;;;;;;5062414;28;20444;-39
2022/06/03 04:10:26;;;;;;;7.47;6.50;;;11.40;99.90;;;;;;5055515;28;20418;-38
2022/06/03 04:12:51;;;;;;;6.50;5.93;;;11.40;99.90;;;;;;5056657;28;20403;-38
2022/06/03 04:15:48;;;;;;;6.97;6.37;;;11.50;99.90;;;;;;5069026;28;20422;-39
2022/06/03 04:18:35;;;;;;;7.00;6.30;;;11.60;99.90;;;;;;5066152;28;20773;-38
2022/06/03 04:21:33;;;;;;;7.40;6.70;;;11.60;99.90;;;;;;5068379;28;20502;-38
2022/06/03 04:24:46;;;;;;;7.20;6.50;;;11.60;99.90;;;;;;5035596;28;20436;-39
2022/06/03 04:27:46;;;;;;;7.50;5.93;;;11.70;99.90;;;;;;5053097;28;20480;-38
2022/06/03 04:30:14;;;;;;;6.77;6.00;;;11.90;99.90;;;;;;5066315;28;20423;-38
2022/06/03 04:33:17;;;;;;;7.80;6.10;;;11.90;99.90;;;;;;5066859;28;20431;-38
2022/06/03 04:36:27;;;;;;;6.80;6.20;;;12.00;99.90;;;;;;5068990;28;20979;-38
2022/06/03 04:39:21;;;;;;;6.53;5.93;;;12.10;99.90;;;;;;5053058;28;20485;-39
2022/06/03 04:42:11;;;;;;;7.80;6.37;;;12.10;99.90;;;;;;5039129;28;20435;-39
2022/06/03 04:45:13;;;;;;;7.03;6.20;;;12.10;99.90;;;;;;5043812;28;20428;-39
2022/06/03 04:48:37;;;;;;;7.13;6.47;;;12.20;99.90;;;;;;5050700;28;20415;-39
2022/06/03 04:51:05;;;;;;;7.20;6.60;;;12.40;99.90;;;;;;5042213;28;20940;-39
2022/06/03 04:54:16;;;;;;;7.07;6.43;;;12.50;99.90;;;;;;5055774;28;20455;-39
2022/06/03 04:57:24;;;;;;;6.47;5.87;;;12.60;99.90;;;;;;5031530;28;20482;-39
2022/06/03 05:00:16;;;;;;;6.30;5.70;;;12.70;99.90;;;;;;5041959;28;20404;-39
2022/06/03 05:03:20;;;;;;;6.97;6.27;;;12.90;99.90;;;;;;5056114;28;20411;-39
2022/06/03 05:06:11;;;;;;;7.10;6.00;;;13.10;99.90;;;;;;5068378;28;20489;-39
2022/06/03 05:08:49;;;;;;;6.00;5.50;;;13.20;99.90;;;;;;5059021;28;20451;-38
2022/06/03 05:11:20;;;;;;;7.10;6.43;;;13.40;99.90;;;;;;5059128;28;20418;-38
2022/06/03 05:13:55;;;;;;;6.60;5.63;;;13.50;99.90;;;;;;5051992;28;21150;-38
2022/06/03 05:16:38;;;;;;;6.00;5.40;;;13.70;99.90;;;;;;5061972;28;20476;-38
2022/06/03 05:19:27;;;;;;;6.73;5.87;;;13.90;99.90;;;;;;5058871;28;20447;-39
2022/06/03 05:22:13;;;;;;;6.20;5.70;;;14.00;99.90;;;;;;5050436;28;20428;-40
2022/06/03 05:24:44;;;;;;;7.40;5.30;;;14.20;99.90;;;;;;5065197;28;20992;-38
2022/06/03 05:27:28;;;;;;;7.93;5.67;;;14.30;99.90;;;;;;5055595;28;20500;-39
2022/06/03 05:30:13;;;;;;;5.93;5.40;;;14.40;99.90;;;;;;5046551;28;20416;-38
2022/06/03 05:33:19;;;;;;;5.87;5.37;;;14.50;99.90;;;;;;5059937;28;20468;-39
2022/06/03 05:36:12;;;;;;;5.80;5.30;;;14.60;99.90;;;;;;5072056;28;20454;-38
2022/06/03 05:39:06;;;;;;;6.73;5.13;;;14.80;99.90;;;;;;5060697;28;20490;-38
2022/06/03 05:44:37;;;;;;;5.10;4.57;;;15.10;99.90;;;;;;5038069;28;20420;-39
2022/06/03 05:47:16;;;;;;;5.40;4.70;;;15.30;99.90;;;;;;5051310;28;20478;-39
2022/06/03 05:50:12;;;;;;;5.37;4.80;;;15.50;99.90;;;;;;5050291;28;20182;-40
2022/06/03 05:53:07;;;;;;;5.47;4.97;;;15.80;99.90;;;;;;5054382;28;20439;-38
2022/06/03 05:56:06;;;;;;;4.93;4.53;;;16.00;99.90;;;;;;5043280;28;20447;-39
2022/06/03 05:58:47;;;;;;;4.67;4.27;;;16.20;99.90;;;;;;5043965;28;20598;-39
2022/06/03 06:01:25;;;;;;;4.87;4.57;;;16.40;99.90;;;;;;5053940;28;20420;-39
2022/06/03 06:03:54;;;;;;;6.63;4.93;;;16.60;99.90;;;;;;5058096;28;20412;-39
2022/06/03 06:06:47;;;;;;;5.17;4.67;;;16.70;99.90;;;;;;5064000;28;20454;-39
2022/06/03 06:09:31;;;;;;;5.30;4.20;;;16.90;99.90;;;;;;5057756;28;20429;-40
2022/06/03 06:12:13;;;;;;;6.33;4.20;;;17.10;99.90;;;;;;5055027;28;20502;-39
2022/06/03 06:15:13;;;;;;;4.20;3.83;;;17.30;99.90;;;;;;5046051;28;20447;-39
2022/06/03 06:18:08;;;;;;;3.97;3.67;;;17.40;99.90;;;;;;5046082;28;20978;-39
2022/06/03 06:21:12;;;;;;;3.73;3.50;;;17.50;99.90;;;;;;5049443;28;20953;-41
2022/06/03 06:23:59;;;;;;;4.30;2.90;;;17.60;99.90;;;;;;5050771;28;20424;-39
2022/06/03 06:26:39;;;;;;;4.80;4.30;;;17.80;99.90;;;;;;5053830;28;20466;-39
2022/06/03 06:29:50;;;;;;;3.77;3.40;;;17.80;99.90;;;;;;5063468;28;20473;-39
2022/06/03 06:32:25;;;;;;;3.70;3.40;;;18.00;99.90;;;;;;5024552;28;21220;-41
2022/06/03 06:35:24;;;;;;;3.77;3.43;;;18.10;99.90;;;;;;5046199;28;20419;-40
2022/06/03 06:38:12;;;;;;;5.43;3.73;;;18.20;99.90;;;;;;5048413;28;20820;-39
2022/06/03 06:41:12;;;;;;;3.30;3.00;;;18.20;99.90;;;;;;5050375;28;20439;-39
2022/06/03 06:43:56;;;;;;;3.50;3.20;;;18.30;99.90;;;;;;5040320;28;20573;-42
2022/06/03 06:46:33;;;;;;;3.47;3.17;;;18.40;99.90;;;;;;5049328;28;20819;-39
2022/06/03 06:49:02;;;;;;;2.90;2.70;;;18.50;99.90;;;;;;5050134;28;20796;-39
2022/06/03 06:51:52;;;;;;;3.20;2.90;;;18.60;99.50;;;;;;5050126;28;20424;-40
2022/06/03 06:54:30;;;;;;;3.03;2.50;;;18.70;99.60;;;;;;5048706;28;20424;-40
2022/06/03 06:57:19;;;;;;;3.30;3.10;;;18.90;99.30;;;;;;5053576;28;20527;-39
2022/06/03 07:00:02;;;;;;;4.20;2.80;;;18.80;99.80;;;;;;5052538;28;20489;-39
2022/06/03 07:02:37;;;;;;;3.23;2.77;;;19.00;99.90;;;;;;5048768;28;20967;-42
2022/06/03 07:05:28;;;;;;;3.50;3.20;;;19.00;99.60;;;;;;5050784;28;20781;-41
2022/06/03 07:08:28;;;;;;;3.60;3.07;;;18.90;99.30;;;;;;5038839;28;20463;-39
2022/06/03 07:11:06;;;;;;;3.00;2.80;;;19.00;98.80;;;;;;5049698;28;20520;-39
2022/06/03 07:13:37;;;;;;;3.67;2.77;;;19.10;99.00;;;;;;5048463;28;20484;-39
2022/06/03 07:22:23;;;;;;;3.70;3.30;;;19.40;99.10;;;;;;5039120;28;20453;-40
2022/06/03 07:25:21;;;;;;;3.93;3.30;;;19.40;99.10;;;;;;5053384;28;20428;-38
2022/06/03 07:28:18;;;;;;;3.80;3.50;;;19.30;99.60;;;;;;5050974;28;20419;-41
2022/06/03 07:31:11;;;;;;;4.50;4.10;;;19.30;99.60;;;;;;5036014;28;20424;-38
2022/06/03 07:33:46;;;;;;;3.70;3.40;;;19.40;98.80;;;;;;5060138;28;20418;-39
2022/06/03 07:36:21;;;;;;;4.50;4.10;;;19.30;99.10;;;;;;5069889;28;20783;-39
2022/06/03 07:39:02;;;;;;;8.20;3.57;;;19.30;99.00;;;;;;5063250;28;20419;-39
2022/06/03 07:41:49;;;;;;;3.80;3.50;;;19.40;99.10;;;;;;5055845;28;20424;-40
2022/06/03 07:44:34;;;;;;;4.30;3.90;;;19.50;99.00;;;;;;5057125;28;20434;-39
2022/06/03 07:47:03;;;;;;;4.20;3.53;;;19.50;99.10;;;;;;5067214;28;20458;-39
2022/06/03 07:49:31;;;;;;;4.03;3.73;;;19.50;99.40;;;;;;5069456;28;20416;-39
2022/06/03 07:52:04;;;;;;;4.00;3.60;;;19.50;98.50;;;;;;5069606;28;20786;-39
2022/06/03 07:54:34;;;;;;;4.50;4.00;;;19.50;99.50;;;;;;5057243;28;20444;-40
2022/06/03 07:57:07;;;;;;;3.90;3.13;;;19.30;99.70;;;;;;5053392;28;20447;-40
2022/06/03 07:59:38;;;;;;;5.00;4.13;;;19.30;99.90;;;;;;5056188;28;20428;-39
2022/06/03 08:02:14;;;;;;;7.17;3.60;;;19.30;99.50;;;;;;5065082;28;20419;-40
2022/06/03 08:04:40;;;;;;;4.20;3.70;;;19.30;99.40;;;;;;5061699;28;20519;-41
2022/06/03 08:12:57;;;;;;;5.93;4.00;;;19.30;99.40;;;;;;5057353;28;21314;-39
2022/06/03 08:15:31;;;;;;;6.43;3.90;;;19.20;99.50;;;;;;5068925;28;20473;-39
2022/06/03 08:18:00;;;;;;;3.73;3.43;;;19.10;99.30;;;;;;5062058;28;20912;-39
2022/06/03 08:20:28;;;;;;;3.50;3.20;;;19.00;99.50;;;;;;5069432;28;20416;-39
2022/06/03 08:22:54;;;;;;;4.13;3.73;;;19.10;99.40;;;;;;5053999;28;20430;-41
2022/06/03 08:25:26;;;;;;;4.10;3.67;;;19.20;99.00;;;;;;5054072;28;20447;-39
2022/06/03 08:27:54;;;;;;;4.40;3.30;;;19.20;99.30;;;;;;5055234;28;20465;-40
2022/06/03 08:30:23;;;;;;;3.47;3.17;;;19.20;99.90;;;;;;5059774;28;20422;-39
2022/06/03 08:32:55;;;;;;;7.53;3.80;;;19.30;99.50;;;;;;5066577;28;20493;-39
2022/06/03 08:35:27;;;;;;;5.70;3.27;;;19.40;99.40;;;;;;5068996;28;20485;-39
2022/06/03 08:38:02;;;;;;;4.70;3.80;;;19.50;99.50;;;;;;5068259;28;20427;-39
2022/06/03 08:40:56;;;;;;;6.70;3.53;;;19.60;99.50;;;;;;5054782;28;20439;-40
2022/06/03 08:43:37;;;;;;;3.33;3.03;;;19.70;99.80;;;;;;5049989;28;20424;-39
2022/06/03 08:46:14;;;;;;;6.80;3.40;;;19.80;99.30;;;;;;5042260;28;20544;-39
2022/06/03 08:48:43;;;;;;;3.10;2.70;;;19.90;99.80;;;;;;5059008;28;20419;-43
2022/06/03 08:51:19;;;;;;;3.50;3.20;;;20.00;99.10;;;;;;5068926;28;20807;-39
2022/06/03 08:54:00;;;;;;;3.93;2.90;;;20.10;98.80;;;;;;5066438;28;20430;-40
2022/06/03 08:56:44;;;;;;;4.87;3.60;;;20.20;99.10;;;;;;5050907;28;20456;-38
2022/06/03 08:59:40;;;;;;;3.53;2.90;;;20.30;98.00;;;;;;5050278;28;20448;-39
2022/06/03 09:02:38;;;;;;;4.97;3.03;;;20.40;98.60;;;;;;5067245;28;20427;-39
2022/06/03 09:05:27;;;;;;;6.37;2.90;;;20.60;98.50;;;;;;5065313;28;20854;-41
2022/06/03 09:08:00;;;;;;;3.40;2.93;;;20.70;97.20;;;;;;5056399;28;20431;-40
2022/06/03 09:10:31;;;;;;;4.03;3.13;;;20.90;96.90;;;;;;5057273;28;20779;-40
2022/06/03 09:13:00;;;;;;;3.03;2.80;;;21.00;96.30;;;;;;5050258;28;20430;-39
2022/06/03 09:15:32;;;;;;;2.93;2.50;;;21.10;97.90;;;;;;5056626;28;20419;-39
2022/06/03 09:18:07;;;;;;;5.13;2.80;;;21.20;96.80;;;;;;5065674;28;20884;-39
2022/06/03 09:21:10;;;;;;;3.57;3.27;;;21.30;96.70;;;;;;5068804;28;20503;-38
2022/06/03 09:23:42;;;;;;;3.60;2.80;;;21.30;96.50;;;;;;5045493;28;20434;-39
2022/06/03 09:26:17;;;;;;;4.47;2.90;;;21.40;96.40;;;;;;5052307;28;21739;-39
2022/06/03 09:28:43;;;;;;;3.17;2.60;;;21.40;96.90;;;;;;5046729;28;20426;-39
2022/06/03 09:31:12;;;;;;;3.03;2.83;;;21.40;96.80;;;;;;5065935;28;20416;-41
2022/06/03 09:33:40;;;;;;;7.63;3.07;;;21.40;96.50;;;;;;5058940;28;20463;-39
2022/06/03 09:36:13;;;;;;;2.63;2.30;;;21.50;95.60;;;;;;5066660;28;21158;-41
2022/06/03 09:39:08;;;;;;;2.37;2.17;;;21.60;95.10;;;;;;5066283;28;20435;-39
2022/06/03 09:41:41;;;;;;;2.73;2.33;;;21.70;94.60;;;;;;5052367;28;20437;-39
2022/06/03 09:44:11;;;;;;;2.40;2.20;;;21.80;94.30;;;;;;5053854;28;20459;-41
2022/06/03 09:46:39;;;;;;;3.70;2.80;;;21.90;93.90;;;;;;5067788;28;20465;-41
2022/06/03 09:49:06;;;;;;;2.90;2.30;;;21.90;94.80;;;;;;5062904;28;20428;-39
2022/06/03 09:51:55;;;;;;;3.87;3.07;;;22.00;95.40;;;;;;5068247;28;20506;-40
2022/06/03 09:54:42;;;;;;;2.37;2.17;;;22.10;94.20;;;;;;5065306;28;20430;-39
2022/06/03 09:57:32;;;;;;;3.13;2.50;;;22.10;94.30;;;;;;5056825;28;20486;-42
2022/06/03 10:00:12;;;;;;;3.30;2.23;;;22.10;94.70;;;;;;5047380;28;20427;-39
2022/06/03 10:02:39;;;;;;;2.40;2.10;;;22.10;93.90;;;;;;5071860;28;20425;-42
2022/06/03 10:05:06;;;;;;;2.67;2.47;;;22.10;93.10;;;;;;5067994;28;20426;-39
2022/06/03 10:07:33;;;;;;;2.23;1.80;;;22.00;92.60;;;;;;5070934;28;20459;-40
2022/06/03 10:12:49;;;;;;;2.37;1.90;;;22.10;93.20;;;;;;5067336;28;20952;-41
2022/06/03 10:15:39;;;;;;;2.47;2.27;;;22.20;93.30;;;;;;5061167;28;20446;-40
2022/06/03 10:18:39;;;;;;;2.13;1.93;;;22.40;93.50;;;;;;5069610;28;20451;-41
2022/06/03 10:21:05;;;;;;;2.60;2.40;;;22.40;92.90;;;;;;5064093;28;20419;-40
2022/06/03 10:24:01;;;;;;;2.73;2.53;;;22.50;93.10;;;;;;5059531;28;20422;-39
2022/06/03 10:26:34;;;;;;;3.27;2.50;;;22.50;91.90;;;;;;5055951;28;20312;-42
2022/06/03 10:29:11;;;;;;;2.90;2.70;;;22.50;93.50;;;;;;5058370;28;20412;-39
2022/06/03 10:31:37;;;;;;;2.60;2.40;;;22.50;92.90;;;;;;5047603;28;20411;-39
2022/06/03 10:34:11;;;;;;;9.67;2.70;;;22.50;93.90;;;;;;5064141;28;20938;-41
2022/06/03 10:36:46;;;;;;;3.07;2.50;;;22.50;93.70;;;;;;5070527;28;20563;-39
2022/06/03 10:39:17;;;;;;;2.53;2.30;;;22.40;93.30;;;;;;5070817;28;20787;-39
2022/06/03 10:41:51;;;;;;;2.60;2.10;;;22.40;93.80;;;;;;5054911;28;20432;-39
2022/06/03 10:44:21;;;;;;;3.53;2.53;;;22.40;93.50;;;;;;5054327;28;20447;-39
2022/06/03 10:47:02;;;;;;;2.77;2.50;;;22.40;93.10;;;;;;5063030;28;20502;-39
2022/06/03 10:49:31;;;;;;;3.07;2.67;;;22.50;92.60;;;;;;5069557;28;20514;-40
2022/06/03 11:03:22;;;;;;;3.07;2.43;;;22.50;92.60;;;;;;5055568;28;20903;-42
2022/06/03 11:05:48;;;;;;;2.83;2.57;;;22.50;93.90;;;;;;5058617;28;20467;-39
2022/06/03 11:08:14;;;;;;;2.83;2.53;;;22.70;92.80;;;;;;5069524;28;20782;-40
2022/06/03 11:10:50;;;;;;;3.70;3.27;;;22.80;93.00;;;;;;5062596;28;20665;-39
2022/06/03 11:13:31;;;;;;;2.87;2.67;;;22.90;93.70;;;;;;5053171;28;20177;-39
2022/06/03 11:16:19;;;;;;;2.87;2.60;;;22.90;92.80;;;;;;5057782;28;20824;-42
2022/06/03 11:18:45;;;;;;;2.90;2.70;;;23.00;93.70;;;;;;5066702;28;20934;-40
2022/06/03 11:21:26;;;;;;;3.40;2.50;;;23.10;93.10;;;;;;5063390;28;20434;-39
2022/06/03 11:23:56;;;;;;;3.33;2.90;;;23.10;91.40;;;;;;5058919;28;20808;-39
2022/06/03 11:26:35;;;;;;;4.43;3.00;;;23.00;92.40;;;;;;5051626;28;20478;-39
2022/06/03 11:29:15;;;;;;;2.30;2.13;;;23.00;91.40;;;;;;5049272;28;20420;-40
2022/06/03 11:31:44;;;;;;;3.07;2.60;;;23.00;92.90;;;;;;5041960;28;20455;-41
2022/06/03 11:34:23;;;;;;;2.13;2.03;;;23.00;91.30;;;;;;5051482;28;20425;-39
2022/06/03 11:37:05;;;;;;;2.90;2.70;;;23.00;91.60;;;;;;5068674;28;20847;-41
2022/06/03 11:39:36;;;;;;;5.13;2.50;;;22.90;92.10;;;;;;5069314;28;20950;-42
2022/06/03 11:42:16;;;;;;;2.57;2.37;;;22.80;92.30;;;;;;5054562;28;20436;-41
2022/06/03 11:44:53;;;;;;;3.20;2.77;;;22.80;92.80;;;;;;5047147;28;20423;-39
2022/06/03 11:48:00;;;;;;;2.43;2.33;;;22.80;91.50;;;;;;5066043;28;20481;-40
2022/06/03 11:50:27;;;;;;;2.63;2.43;;;22.90;90.80;;;;;;5045182;28;20421;-40
2022/06/03 11:52:55;;;;;;;2.37;2.17;;;22.80;89.90;;;;;;5069743;28;20446;-42
2022/06/03 11:55:22;;;;;;;2.10;1.90;;;22.90;90.70;;;;;;5066191;28;20427;-40
2022/06/03 11:58:04;;;;;;;2.70;2.30;;;22.90;90.50;;;;;;5054379;28;20931;-39
2022/06/03 12:00:34;;;;;;;2.30;2.10;;;22.90;90.80;;;;;;5054829;28;20419;-39
2022/06/03 12:03:09;;;;;;;2.67;2.47;;;23.00;91.40;;;;;;5069492;28;20459;-43
2022/06/03 12:05:44;;;;;;;2.57;2.37;;;23.00;90.60;;;;;;5061058;28;20459;-39
2022/06/03 12:08:48;;;;;;;2.67;2.47;;;23.00;92.20;;;;;;5068907;28;20450;-44
2022/06/03 12:14:28;;;;;;;2.40;2.20;;;23.10;90.90;;;;;;5059873;28;20452;-41
2022/06/03 12:16:58;;;;;;;2.50;2.40;;;23.20;91.10;;;;;;5054428;28;20419;-42
2022/06/03 12:19:35;;;;;;;3.97;2.17;;;23.40;89.70;;;;;;5065386;28;20432;-39
2022/06/03 12:22:19;;;;;;;2.80;2.60;;;23.50;89.60;;;;;;5058730;28;20434;-39
2022/06/03 12:24:47;;;;;;;2.37;2.23;;;23.60;92.00;;;;;;5067334;28;20446;-39
2022/06/03 12:27:27;;;;;;;3.37;2.30;;;23.70;89.30;;;;;;5052978;28;20486;-39
2022/06/03 12:30:14;;;;;;;2.60;2.50;;;23.80;92.10;;;;;;5051047;28;21012;-40
2022/06/03 12:33:14;;;;;;;3.50;2.80;;;24.00;90.80;;;;;;5065663;28;20510;-39
2022/06/03 12:35:47;;;;;;;2.97;2.17;;;24.00;88.40;;;;;;5055251;28;20841;-40
2022/06/03 12:38:19;;;;;;;2.90;2.70;;;24.00;89.30;;;;;;5068490;28;20809;-42
2022/06/03 12:40:46;;;;;;;2.57;2.37;;;24.00;90.80;;;;;;5067264;28;20438;-40
2022/06/03 12:43:46;;;;;;;2.80;2.60;;;23.90;90.40;;;;;;5050556;28;20511;-41
2022/06/03 12:46:36;;;;;;;2.57;2.37;;;23.80;89.40;;;;;;5038942;28;20483;-41
2022/06/03 12:49:04;;;;;;;2.53;2.33;;;23.80;90.10;;;;;;5066856;28;20411;-41
2022/06/03 12:51:57;;;;;;;3.50;2.70;;;23.80;89.60;;;;;;5060523;28;20415;-41
2022/06/03 12:54:23;;;;;;;2.67;2.47;;;23.80;90.00;;;;;;5067780;28;20920;-39
2022/06/03 12:56:58;;;;;;;3.30;2.53;;;23.80;90.00;;;;;;5059037;28;20602;-43
2022/06/03 12:59:31;;;;;;;2.67;2.47;;;23.90;91.40;;;;;;5048812;28;20192;-41
2022/06/03 13:02:24;;;;;;;4.17;3.60;;;24.00;90.50;;;;;;5053408;28;20411;-41
2022/06/03 13:04:53;;;;;;;3.03;2.73;;;24.10;90.90;;;;;;5061722;28;20756;-40
2022/06/03 13:07:27;;;;;;;4.10;2.70;;;24.20;91.00;;;;;;5068136;28;20534;-40
2022/06/03 13:10:03;;;;;;;2.90;2.50;;;24.10;89.70;;;;;;5068719;28;20418;-40
2022/06/03 13:12:47;;;;;;;2.27;2.10;;;24.10;87.00;;;;;;5054996;28;20428;-41
2022/06/03 13:15:22;;;;;;;2.80;2.60;;;24.10;90.20;;;;;;5052277;28;20453;-42
2022/06/03 13:17:55;;;;;;;2.93;2.70;;;24.10;90.00;;;;;;5061539;28;20510;-40
2022/06/03 13:20:39;;;;;;;2.93;2.63;;;24.10;90.40;;;;;;5060499;28;20482;-39
2022/06/03 13:23:35;;;;;;;2.77;2.57;;;24.10;89.90;;;;;;5052694;28;20411;-40
2022/06/03 13:26:27;;;;;;;2.77;2.57;;;24.00;88.30;;;;;;5046900;28;20566;-43
2022/06/03 13:28:54;;;;;;;3.03;2.10;;;24.00;89.20;;;;;;5049959;28;20428;-39
2022/06/03 13:31:41;;;;;;;2.67;2.47;;;24.10;86.90;;;;;;5059074;28;20431;-40
2022/06/03 13:34:08;;;;;;;2.80;2.40;;;24.20;88.90;;;;;;5071900;28;20900;-43
2022/06/03 13:36:53;;;;;;;3.07;2.87;;;24.30;88.90;;;;;;5062713;28;20458;-42
2022/06/03 13:39:27;;;;;;;2.30;2.10;;;24.40;87.20;;;;;;5072211;28;20498;-42
2022/06/03 13:45:01;;;;;;;3.90;2.30;;;24.50;90.60;;;;;;5057313;28;20412;-39
2022/06/03 13:47:34;;;;;;;2.90;2.33;;;24.50;85.50;;;;;;5056732;28;20850;-40
2022/06/03 13:50:14;;;;;;;2.63;2.43;;;24.50;90.00;;;;;;5068111;28;20455;-39
2022/06/03 13:52:53;;;;;;;2.27;2.17;;;24.50;85.70;;;;;;5071917;28;20468;-42
2022/06/03 13:55:37;;;;;;;3.07;2.50;;;24.60;84.90;;;;;;5070890;28;20430;-41
2022/06/03 13:58:20;;;;;;;6.43;2.43;;;24.50;87.80;;;;;;5055118;28;20581;-41
2022/06/03 14:00:49;;;;;;;2.57;2.30;;;24.50;85.60;;;;;;5049812;28;20863;-40
2022/06/03 14:03:42;;;;;;;2.70;2.50;;;24.40;85.90;;;;;;5065753;28;20757;-41
2022/06/03 14:06:19;;;;;;;2.70;2.50;;;24.40;84.50;;;;;;5060133;28;20463;-40
2022/06/03 14:08:52;;;;;;;2.27;2.17;;;24.30;85.40;;;;;;5071117;28;20769;-40
2022/06/03 14:11:32;;;;;;;3.10;2.50;;;24.30;84.70;;;;;;5070464;28;20519;-39
2022/06/03 14:14:09;;;;;;;2.87;2.67;;;24.20;83.50;;;;;;5054684;28;20420;-40
2022/06/03 14:17:01;;;;;;;2.63;2.43;;;24.10;82.30;;;;;;5060955;28;20497;-39
2022/06/03 14:19:51;;;;;;;2.70;2.50;;;24.10;82.60;;;;;;5071437;28;20419;-39
2022/06/03 14:22:26;;;;;;;2.23;2.13;;;24.00;82.80;;;;;;5051348;28;20486;-40
2022/06/03 14:25:12;;;;;;;2.83;2.60;;;24.00;84.10;;;;;;5070409;28;20514;-44
2022/06/03 14:28:07;;;;;;;2.47;2.37;;;23.90;84.50;;;;;;5060233;28;20472;-39
2022/06/03 14:30:45;;;;;;;2.80;2.60;;;23.80;85.60;;;;;;5053844;28;20427;-39
2022/06/03 14:33:13;;;;;;;2.33;2.20;;;23.80;84.10;;;;;;5045784;28;20411;-41
2022/06/03 14:35:43;;;;;;;2.90;2.70;;;23.80;87.20;;;;;;5065153;28;20424;-39
2022/06/03 14:38:11;;;;;;;2.80;2.60;;;23.80;85.50;;;;;;5070456;28;20419;-41
2022/06/03 14:40:41;;;;;;;2.53;2.40;;;23.70;86.00;;;;;;5070845;28;20459;-39